sensor_id;sensor_type;location;lat;lon;timestamp;P1;durP1;ratioP1;P2;durP2;ratioP2
40659;SDS011;26753;45.544;9.232;2022-08-01T00:00:04;7.15;;;3.20;;
40659;SDS011;26753;45.544;9.232;2022-08-01T00:02:31;3.85;;;2.80;;
40659;SDS011;26753;45.544;9.232;2022-08-01T00:04:57;4.60;;;2.70;;
40659;SDS011;26753;45.544;9.232;2022-08-01T00:07:23;5.15;;;2.70;;
40659;SDS011;26753;45.544;9.232;2022-08-01T00:09:48;5.30;;;2.80;;
40659;SDS011;26753;45.544;9.232;2022-08-01T00:12:14;7.78;;;3.25;;
40659;SDS011;26753;45.544;9.232;2022-08-01T00:14:39;5.72;;;3.00;;
40659;SDS011;26753;45.544;9.232;2022-08-01T00:17:05;4.38;;;2.67;;
40659;SDS011;26753;45.544;9.232;2022-08-01T00:19:31;6.35;;;3.03;;
40659;SDS011;26753;45.544;9.232;2022-08-01T00:21:56;5.50;;;3.03;;
40659;SDS011;26753;45.544;9.232;2022-08-01T00:24:22;6.38;;;2.90;;
40659;SDS011;26753;45.544;9.232;2022-08-01T00:26:48;3.15;;;2.80;;
40659;SDS011;26753;45.544;9.232;2022-08-01T00:29:13;3.40;;;2.72;;
40659;SDS011;26753;45.544;9.232;2022-08-01T00:31:39;5.22;;;3.00;;
40659;SDS011;26753;45.544;9.232;2022-08-01T00:34:05;8.02;;;3.30;;
40659;SDS011;26753;45.544;9.232;2022-08-01T00:36:30;4.00;;;3.20;;
40659;SDS011;26753;45.544;9.232;2022-08-01T00:38:56;5.40;;;2.88;;
40659;SDS011;26753;45.544;9.232;2022-08-01T00:41:22;3.97;;;2.65;;
40659;SDS011;26753;45.544;9.232;2022-08-01T00:43:47;4.63;;;2.90;;
40659;SDS011;26753;45.544;9.232;2022-08-01T00:46:13;5.20;;;3.28;;
40659;SDS011;26753;45.544;9.232;2022-08-01T00:48:39;3.90;;;3.08;;
40659;SDS011;26753;45.544;9.232;2022-08-01T00:51:04;5.18;;;3.17;;
40659;SDS011;26753;45.544;9.232;2022-08-01T00:53:30;6.30;;;3.30;;
40659;SDS011;26753;45.544;9.232;2022-08-01T00:55:56;7.97;;;3.58;;
40659;SDS011;26753;45.544;9.232;2022-08-01T00:58:22;4.63;;;2.90;;
40659;SDS011;26753;45.544;9.232;2022-08-01T01:00:48;4.63;;;3.45;;
40659;SDS011;26753;45.544;9.232;2022-08-01T01:03:14;6.57;;;2.92;;
40659;SDS011;26753;45.544;9.232;2022-08-01T01:05:43;4.45;;;2.90;;
40659;SDS011;26753;45.544;9.232;2022-08-01T01:08:27;6.05;;;3.38;;
40659;SDS011;26753;45.544;9.232;2022-08-01T01:13:56;4.15;;;2.63;;
40659;SDS011;26753;45.544;9.232;2022-08-01T01:16:26;4.88;;;2.80;;
40659;SDS011;26753;45.544;9.232;2022-08-01T01:18:56;6.18;;;2.80;;
40659;SDS011;26753;45.544;9.232;2022-08-01T01:21:29;4.25;;;2.80;;
40659;SDS011;26753;45.544;9.232;2022-08-01T01:31:56;4.07;;;3.00;;
40659;SDS011;26753;45.544;9.232;2022-08-01T01:34:29;3.65;;;2.40;;
40659;SDS011;26753;45.544;9.232;2022-08-01T01:36:59;3.45;;;2.50;;
40659;SDS011;26753;45.544;9.232;2022-08-01T01:39:27;2.97;;;2.40;;
40659;SDS011;26753;45.544;9.232;2022-08-01T01:41:55;3.38;;;2.50;;
40659;SDS011;26753;45.544;9.232;2022-08-01T01:44:22;3.45;;;2.78;;
40659;SDS011;26753;45.544;9.232;2022-08-01T01:46:50;3.05;;;2.50;;
40659;SDS011;26753;45.544;9.232;2022-08-01T01:49:19;3.05;;;2.67;;
40659;SDS011;26753;45.544;9.232;2022-08-01T01:51:47;2.80;;;2.30;;
40659;SDS011;26753;45.544;9.232;2022-08-01T01:54:15;5.45;;;2.40;;
40659;SDS011;26753;45.544;9.232;2022-08-01T01:56:40;4.72;;;2.60;;
40659;SDS011;26753;45.544;9.232;2022-08-01T01:59:18;3.28;;;2.38;;
40659;SDS011;26753;45.544;9.232;2022-08-01T02:01:46;4.22;;;2.60;;
40659;SDS011;26753;45.544;9.232;2022-08-01T02:04:14;3.78;;;2.35;;
40659;SDS011;26753;45.544;9.232;2022-08-01T02:06:41;3.85;;;2.70;;
40659;SDS011;26753;45.544;9.232;2022-08-01T02:09:09;4.25;;;2.70;;
40659;SDS011;26753;45.544;9.232;2022-08-01T02:11:36;2.95;;;2.65;;
40659;SDS011;26753;45.544;9.232;2022-08-01T02:14:03;4.03;;;2.90;;
40659;SDS011;26753;45.544;9.232;2022-08-01T02:16:33;3.85;;;2.50;;
40659;SDS011;26753;45.544;9.232;2022-08-01T02:19:01;3.42;;;2.53;;
40659;SDS011;26753;45.544;9.232;2022-08-01T02:21:29;5.15;;;2.38;;
40659;SDS011;26753;45.544;9.232;2022-08-01T02:27:11;4.55;;;2.33;;
40659;SDS011;26753;45.544;9.232;2022-08-01T02:29:41;3.78;;;2.47;;
40659;SDS011;26753;45.544;9.232;2022-08-01T02:32:32;4.00;;;2.40;;
40659;SDS011;26753;45.544;9.232;2022-08-01T02:35:00;3.97;;;2.30;;
40659;SDS011;26753;45.544;9.232;2022-08-01T02:37:28;3.13;;;2.30;;
40659;SDS011;26753;45.544;9.232;2022-08-01T02:39:58;3.67;;;2.17;;
40659;SDS011;26753;45.544;9.232;2022-08-01T02:42:25;4.13;;;2.10;;
40659;SDS011;26753;45.544;9.232;2022-08-01T02:44:53;3.28;;;2.05;;
40659;SDS011;26753;45.544;9.232;2022-08-01T02:47:19;3.20;;;2.10;;
40659;SDS011;26753;45.544;9.232;2022-08-01T02:49:48;3.10;;;2.05;;
40659;SDS011;26753;45.544;9.232;2022-08-01T02:52:17;4.22;;;2.40;;
40659;SDS011;26753;45.544;9.232;2022-08-01T02:54:45;2.75;;;2.20;;
40659;SDS011;26753;45.544;9.232;2022-08-01T02:57:13;2.67;;;2.20;;
40659;SDS011;26753;45.544;9.232;2022-08-01T02:59:41;4.50;;;2.30;;
40659;SDS011;26753;45.544;9.232;2022-08-01T03:02:09;2.83;;;2.30;;
40659;SDS011;26753;45.544;9.232;2022-08-01T03:04:37;2.42;;;2.22;;
40659;SDS011;26753;45.544;9.232;2022-08-01T03:07:04;3.22;;;2.13;;
40659;SDS011;26753;45.544;9.232;2022-08-01T03:09:34;3.38;;;2.38;;
40659;SDS011;26753;45.544;9.232;2022-08-01T03:12:06;5.93;;;2.30;;
40659;SDS011;26753;45.544;9.232;2022-08-01T03:14:36;3.97;;;2.30;;
40659;SDS011;26753;45.544;9.232;2022-08-01T03:17:04;4.85;;;2.60;;
40659;SDS011;26753;45.544;9.232;2022-08-01T03:19:31;4.57;;;2.50;;
40659;SDS011;26753;45.544;9.232;2022-08-01T03:21:58;3.28;;;2.38;;
40659;SDS011;26753;45.544;9.232;2022-08-01T03:24:28;4.28;;;2.60;;
40659;SDS011;26753;45.544;9.232;2022-08-01T03:26:56;4.28;;;2.25;;
40659;SDS011;26753;45.544;9.232;2022-08-01T03:29:24;3.55;;;2.30;;
40659;SDS011;26753;45.544;9.232;2022-08-01T03:31:52;5.25;;;2.40;;
40659;SDS011;26753;45.544;9.232;2022-08-01T03:34:18;4.00;;;2.30;;
40659;SDS011;26753;45.544;9.232;2022-08-01T03:36:49;4.22;;;2.50;;
40659;SDS011;26753;45.544;9.232;2022-08-01T03:39:22;4.03;;;2.92;;
40659;SDS011;26753;45.544;9.232;2022-08-01T03:41:54;3.30;;;2.20;;
40659;SDS011;26753;45.544;9.232;2022-08-01T03:44:25;6.15;;;2.47;;
40659;SDS011;26753;45.544;9.232;2022-08-01T03:46:58;4.22;;;2.28;;
40659;SDS011;26753;45.544;9.232;2022-08-01T03:49:28;3.40;;;2.47;;
40659;SDS011;26753;45.544;9.232;2022-08-01T03:51:55;4.25;;;2.50;;
40659;SDS011;26753;45.544;9.232;2022-08-01T03:54:24;7.03;;;2.75;;
40659;SDS011;26753;45.544;9.232;2022-08-01T03:56:53;2.90;;;2.40;;
40659;SDS011;26753;45.544;9.232;2022-08-01T03:59:20;3.40;;;2.50;;
40659;SDS011;26753;45.544;9.232;2022-08-01T04:01:46;4.63;;;2.35;;
40659;SDS011;26753;45.544;9.232;2022-08-01T04:04:12;5.20;;;2.60;;
40659;SDS011;26753;45.544;9.232;2022-08-01T04:06:39;4.78;;;2.35;;
40659;SDS011;26753;45.544;9.232;2022-08-01T04:09:06;4.32;;;2.65;;
40659;SDS011;26753;45.544;9.232;2022-08-01T04:11:33;5.38;;;2.80;;
40659;SDS011;26753;45.544;9.232;2022-08-01T04:13:59;6.43;;;3.65;;
40659;SDS011;26753;45.544;9.232;2022-08-01T04:16:24;10.25;;;4.75;;
40659;SDS011;26753;45.544;9.232;2022-08-01T04:18:50;6.68;;;4.38;;
40659;SDS011;26753;45.544;9.232;2022-08-01T04:21:18;5.75;;;4.05;;
40659;SDS011;26753;45.544;9.232;2022-08-01T04:26:14;6.40;;;3.15;;
40659;SDS011;26753;45.544;9.232;2022-08-01T04:28:41;5.97;;;3.13;;
40659;SDS011;26753;45.544;9.232;2022-08-01T04:31:09;9.15;;;3.03;;
40659;SDS011;26753;45.544;9.232;2022-08-01T04:33:38;4.75;;;3.10;;
40659;SDS011;26753;45.544;9.232;2022-08-01T04:36:08;6.78;;;4.32;;
40659;SDS011;26753;45.544;9.232;2022-08-01T04:38:36;4.32;;;3.55;;
40659;SDS011;26753;45.544;9.232;2022-08-01T04:41:03;7.90;;;4.40;;
40659;SDS011;26753;45.544;9.232;2022-08-01T04:43:31;5.18;;;3.83;;
40659;SDS011;26753;45.544;9.232;2022-08-01T04:45:57;7.22;;;3.30;;
40659;SDS011;26753;45.544;9.232;2022-08-01T04:48:23;5.75;;;3.00;;
40659;SDS011;26753;45.544;9.232;2022-08-01T04:50:51;5.10;;;3.00;;
40659;SDS011;26753;45.544;9.232;2022-08-01T04:53:17;6.57;;;3.50;;
40659;SDS011;26753;45.544;9.232;2022-08-01T04:55:47;6.57;;;4.43;;
40659;SDS011;26753;45.544;9.232;2022-08-01T04:58:16;8.73;;;5.20;;
40659;SDS011;26753;45.544;9.232;2022-08-01T05:00:42;12.45;;;7.28;;
40659;SDS011;26753;45.544;9.232;2022-08-01T05:03:08;8.80;;;3.40;;
40659;SDS011;26753;45.544;9.232;2022-08-01T05:05:33;4.75;;;3.00;;
40659;SDS011;26753;45.544;9.232;2022-08-01T05:08:00;5.95;;;3.00;;
40659;SDS011;26753;45.544;9.232;2022-08-01T05:10:26;6.53;;;3.28;;
40659;SDS011;26753;45.544;9.232;2022-08-01T05:12:52;5.45;;;3.40;;
40659;SDS011;26753;45.544;9.232;2022-08-01T05:15:17;6.90;;;3.13;;
40659;SDS011;26753;45.544;9.232;2022-08-01T05:17:43;4.32;;;2.67;;
40659;SDS011;26753;45.544;9.232;2022-08-01T05:20:09;5.43;;;3.10;;
40659;SDS011;26753;45.544;9.232;2022-08-01T05:22:36;5.50;;;3.00;;
40659;SDS011;26753;45.544;9.232;2022-08-01T05:25:02;3.40;;;2.60;;
40659;SDS011;26753;45.544;9.232;2022-08-01T05:27:29;5.00;;;2.40;;
40659;SDS011;26753;45.544;9.232;2022-08-01T05:29:56;4.72;;;2.55;;
40659;SDS011;26753;45.544;9.232;2022-08-01T05:32:22;6.30;;;2.67;;
40659;SDS011;26753;45.544;9.232;2022-08-01T05:34:47;7.55;;;2.60;;
40659;SDS011;26753;45.544;9.232;2022-08-01T05:37:13;5.05;;;2.80;;
40659;SDS011;26753;45.544;9.232;2022-08-01T05:39:38;3.47;;;2.50;;
40659;SDS011;26753;45.544;9.232;2022-08-01T05:42:04;4.68;;;2.60;;
40659;SDS011;26753;45.544;9.232;2022-08-01T05:44:30;5.07;;;2.33;;
40659;SDS011;26753;45.544;9.232;2022-08-01T05:46:56;5.43;;;2.40;;
40659;SDS011;26753;45.544;9.232;2022-08-01T05:49:21;6.43;;;2.80;;
40659;SDS011;26753;45.544;9.232;2022-08-01T05:51:47;4.43;;;2.50;;
40659;SDS011;26753;45.544;9.232;2022-08-01T05:54:13;5.00;;;2.42;;
40659;SDS011;26753;45.544;9.232;2022-08-01T05:56:38;5.00;;;2.65;;
40659;SDS011;26753;45.544;9.232;2022-08-01T05:59:04;3.90;;;2.55;;
40659;SDS011;26753;45.544;9.232;2022-08-01T06:01:30;7.18;;;2.50;;
40659;SDS011;26753;45.544;9.232;2022-08-01T06:03:57;5.65;;;2.60;;
40659;SDS011;26753;45.544;9.232;2022-08-01T06:06:23;6.32;;;3.05;;
40659;SDS011;26753;45.544;9.232;2022-08-01T06:08:48;7.43;;;2.90;;
40659;SDS011;26753;45.544;9.232;2022-08-01T06:11:14;10.98;;;4.45;;
40659;SDS011;26753;45.544;9.232;2022-08-01T06:13:40;7.45;;;3.13;;
40659;SDS011;26753;45.544;9.232;2022-08-01T06:16:06;10.88;;;3.30;;
40659;SDS011;26753;45.544;9.232;2022-08-01T06:18:32;6.72;;;2.63;;
40659;SDS011;26753;45.544;9.232;2022-08-01T06:20:58;4.25;;;2.75;;
40659;SDS011;26753;45.544;9.232;2022-08-01T06:23:23;3.75;;;2.30;;
40659;SDS011;26753;45.544;9.232;2022-08-01T06:25:52;9.32;;;2.38;;
40659;SDS011;26753;45.544;9.232;2022-08-01T06:28:18;8.15;;;2.28;;
40659;SDS011;26753;45.544;9.232;2022-08-01T06:30:44;5.18;;;2.60;;
40659;SDS011;26753;45.544;9.232;2022-08-01T06:33:09;4.05;;;2.40;;
40659;SDS011;26753;45.544;9.232;2022-08-01T06:35:35;5.45;;;2.33;;
40659;SDS011;26753;45.544;9.232;2022-08-01T06:38:01;7.25;;;2.53;;
40659;SDS011;26753;45.544;9.232;2022-08-01T06:40:28;9.23;;;2.30;;
40659;SDS011;26753;45.544;9.232;2022-08-01T06:42:53;7.15;;;2.45;;
40659;SDS011;26753;45.544;9.232;2022-08-01T06:45:19;14.02;;;2.78;;
40659;SDS011;26753;45.544;9.232;2022-08-01T06:47:47;14.32;;;2.70;;
40659;SDS011;26753;45.544;9.232;2022-08-01T06:50:13;14.10;;;2.85;;
40659;SDS011;26753;45.544;9.232;2022-08-01T06:52:39;11.20;;;2.97;;
40659;SDS011;26753;45.544;9.232;2022-08-01T06:55:07;15.20;;;2.92;;
40659;SDS011;26753;45.544;9.232;2022-08-01T06:57:33;15.07;;;2.80;;
40659;SDS011;26753;45.544;9.232;2022-08-01T07:00:03;9.95;;;2.65;;
40659;SDS011;26753;45.544;9.232;2022-08-01T07:02:36;10.85;;;2.70;;
40659;SDS011;26753;45.544;9.232;2022-08-01T07:05:02;14.45;;;2.92;;
40659;SDS011;26753;45.544;9.232;2022-08-01T07:07:28;10.38;;;2.85;;
40659;SDS011;26753;45.544;9.232;2022-08-01T07:09:55;7.95;;;3.08;;
40659;SDS011;26753;45.544;9.232;2022-08-01T07:12:20;12.40;;;2.47;;
40659;SDS011;26753;45.544;9.232;2022-08-01T07:14:46;4.53;;;2.40;;
40659;SDS011;26753;45.544;9.232;2022-08-01T07:17:12;6.20;;;2.53;;
40659;SDS011;26753;45.544;9.232;2022-08-01T07:19:37;5.70;;;2.83;;
40659;SDS011;26753;45.544;9.232;2022-08-01T07:22:03;6.70;;;2.30;;
40659;SDS011;26753;45.544;9.232;2022-08-01T07:24:29;7.53;;;2.40;;
40659;SDS011;26753;45.544;9.232;2022-08-01T07:26:54;6.45;;;2.90;;
40659;SDS011;26753;45.544;9.232;2022-08-01T07:29:25;7.05;;;2.20;;
40659;SDS011;26753;45.544;9.232;2022-08-01T07:31:52;6.38;;;2.40;;
40659;SDS011;26753;45.544;9.232;2022-08-01T07:34:21;5.68;;;2.38;;
40659;SDS011;26753;45.544;9.232;2022-08-01T07:36:47;5.38;;;2.20;;
40659;SDS011;26753;45.544;9.232;2022-08-01T07:39:13;5.35;;;3.20;;
40659;SDS011;26753;45.544;9.232;2022-08-01T07:41:39;6.80;;;2.35;;
40659;SDS011;26753;45.544;9.232;2022-08-01T07:44:05;5.90;;;2.50;;
40659;SDS011;26753;45.544;9.232;2022-08-01T07:46:30;6.95;;;2.40;;
40659;SDS011;26753;45.544;9.232;2022-08-01T07:48:56;5.30;;;2.47;;
40659;SDS011;26753;45.544;9.232;2022-08-01T07:51:22;6.13;;;2.30;;
40659;SDS011;26753;45.544;9.232;2022-08-01T07:53:48;8.25;;;2.20;;
40659;SDS011;26753;45.544;9.232;2022-08-01T07:56:13;2.72;;;2.20;;
40659;SDS011;26753;45.544;9.232;2022-08-01T07:58:39;3.25;;;2.15;;
40659;SDS011;26753;45.544;9.232;2022-08-01T08:01:05;4.60;;;2.30;;
40659;SDS011;26753;45.544;9.232;2022-08-01T08:03:31;6.65;;;3.00;;
40659;SDS011;26753;45.544;9.232;2022-08-01T08:05:56;7.95;;;2.80;;
40659;SDS011;26753;45.544;9.232;2022-08-01T08:08:22;5.10;;;2.20;;
40659;SDS011;26753;45.544;9.232;2022-08-01T08:10:48;4.28;;;2.20;;
40659;SDS011;26753;45.544;9.232;2022-08-01T08:13:14;6.07;;;2.25;;
40659;SDS011;26753;45.544;9.232;2022-08-01T08:15:40;5.22;;;2.47;;
40659;SDS011;26753;45.544;9.232;2022-08-01T08:18:06;6.45;;;2.50;;
40659;SDS011;26753;45.544;9.232;2022-08-01T08:20:32;7.25;;;2.75;;
40659;SDS011;26753;45.544;9.232;2022-08-01T08:22:57;4.20;;;2.40;;
40659;SDS011;26753;45.544;9.232;2022-08-01T08:25:24;5.88;;;2.10;;
40659;SDS011;26753;45.544;9.232;2022-08-01T08:27:50;4.07;;;2.42;;
40659;SDS011;26753;45.544;9.232;2022-08-01T08:30:16;5.45;;;3.53;;
40659;SDS011;26753;45.544;9.232;2022-08-01T08:32:42;6.25;;;2.60;;
40659;SDS011;26753;45.544;9.232;2022-08-01T08:35:08;5.55;;;2.50;;
40659;SDS011;26753;45.544;9.232;2022-08-01T08:37:35;5.68;;;2.45;;
40659;SDS011;26753;45.544;9.232;2022-08-01T08:40:02;4.53;;;2.40;;
40659;SDS011;26753;45.544;9.232;2022-08-01T08:42:28;5.13;;;2.42;;
40659;SDS011;26753;45.544;9.232;2022-08-01T08:44:54;5.47;;;2.47;;
40659;SDS011;26753;45.544;9.232;2022-08-01T08:47:20;4.10;;;2.38;;
40659;SDS011;26753;45.544;9.232;2022-08-01T08:49:48;5.10;;;2.50;;
40659;SDS011;26753;45.544;9.232;2022-08-01T08:52:15;3.40;;;2.38;;
40659;SDS011;26753;45.544;9.232;2022-08-01T08:54:44;3.75;;;2.45;;
40659;SDS011;26753;45.544;9.232;2022-08-01T08:57:13;3.97;;;2.40;;
40659;SDS011;26753;45.544;9.232;2022-08-01T08:59:39;6.72;;;2.60;;
40659;SDS011;26753;45.544;9.232;2022-08-01T09:02:05;4.53;;;2.60;;
40659;SDS011;26753;45.544;9.232;2022-08-01T09:04:34;4.03;;;2.50;;
40659;SDS011;26753;45.544;9.232;2022-08-01T09:07:03;5.47;;;2.50;;
40659;SDS011;26753;45.544;9.232;2022-08-01T09:09:29;5.13;;;2.35;;
40659;SDS011;26753;45.544;9.232;2022-08-01T09:11:55;5.43;;;2.55;;
40659;SDS011;26753;45.544;9.232;2022-08-01T09:14:21;7.90;;;2.70;;
40659;SDS011;26753;45.544;9.232;2022-08-01T09:16:58;6.82;;;2.63;;
40659;SDS011;26753;45.544;9.232;2022-08-01T09:19:42;9.57;;;3.55;;
40659;SDS011;26753;45.544;9.232;2022-08-01T09:22:11;5.43;;;3.22;;
40659;SDS011;26753;45.544;9.232;2022-08-01T09:24:37;9.70;;;3.00;;
40659;SDS011;26753;45.544;9.232;2022-08-01T09:27:14;5.75;;;2.80;;
40659;SDS011;26753;45.544;9.232;2022-08-01T09:29:44;5.65;;;2.60;;
40659;SDS011;26753;45.544;9.232;2022-08-01T09:32:10;7.57;;;2.67;;
40659;SDS011;26753;45.544;9.232;2022-08-01T09:34:36;11.32;;;2.85;;
40659;SDS011;26753;45.544;9.232;2022-08-01T09:37:02;10.25;;;3.10;;
40659;SDS011;26753;45.544;9.232;2022-08-01T09:39:29;7.80;;;2.70;;
40659;SDS011;26753;45.544;9.232;2022-08-01T09:41:57;4.38;;;2.60;;
40659;SDS011;26753;45.544;9.232;2022-08-01T09:44:43;7.82;;;3.30;;
40659;SDS011;26753;45.544;9.232;2022-08-01T09:47:10;5.15;;;2.75;;
40659;SDS011;26753;45.544;9.232;2022-08-01T09:49:38;4.07;;;2.45;;
40659;SDS011;26753;45.544;9.232;2022-08-01T09:52:18;5.35;;;3.03;;
40659;SDS011;26753;45.544;9.232;2022-08-01T09:57:28;5.80;;;2.53;;
40659;SDS011;26753;45.544;9.232;2022-08-01T09:59:55;7.47;;;2.63;;
40659;SDS011;26753;45.544;9.232;2022-08-01T10:02:26;6.63;;;2.53;;
40659;SDS011;26753;45.544;9.232;2022-08-01T10:04:54;6.47;;;2.60;;
40659;SDS011;26753;45.544;9.232;2022-08-01T10:07:20;3.65;;;2.50;;
40659;SDS011;26753;45.544;9.232;2022-08-01T10:09:47;5.35;;;2.60;;
40659;SDS011;26753;45.544;9.232;2022-08-01T10:12:14;7.30;;;2.25;;
40659;SDS011;26753;45.544;9.232;2022-08-01T10:14:42;5.78;;;2.65;;
40659;SDS011;26753;45.544;9.232;2022-08-01T10:17:12;4.85;;;2.50;;
40659;SDS011;26753;45.544;9.232;2022-08-01T10:19:39;4.53;;;2.20;;
40659;SDS011;26753;45.544;9.232;2022-08-01T10:22:10;3.10;;;2.13;;
40659;SDS011;26753;45.544;9.232;2022-08-01T10:24:38;3.60;;;2.10;;
40659;SDS011;26753;45.544;9.232;2022-08-01T10:27:08;4.85;;;2.10;;
40659;SDS011;26753;45.544;9.232;2022-08-01T10:29:40;3.50;;;2.20;;
40659;SDS011;26753;45.544;9.232;2022-08-01T10:32:15;5.15;;;2.55;;
40659;SDS011;26753;45.544;9.232;2022-08-01T10:34:41;6.07;;;2.10;;
40659;SDS011;26753;45.544;9.232;2022-08-01T10:37:07;5.43;;;2.53;;
40659;SDS011;26753;45.544;9.232;2022-08-01T10:39:34;3.90;;;2.42;;
40659;SDS011;26753;45.544;9.232;2022-08-01T10:42:00;11.80;;;2.95;;
40659;SDS011;26753;45.544;9.232;2022-08-01T10:44:28;6.63;;;2.95;;
40659;SDS011;26753;45.544;9.232;2022-08-01T10:47:06;4.97;;;2.70;;
40659;SDS011;26753;45.544;9.232;2022-08-01T10:49:36;4.80;;;2.38;;
40659;SDS011;26753;45.544;9.232;2022-08-01T10:52:14;3.85;;;2.28;;
40659;SDS011;26753;45.544;9.232;2022-08-01T10:54:40;3.50;;;2.45;;
40659;SDS011;26753;45.544;9.232;2022-08-01T10:57:06;3.45;;;2.30;;
40659;SDS011;26753;45.544;9.232;2022-08-01T10:59:32;3.60;;;2.10;;
40659;SDS011;26753;45.544;9.232;2022-08-01T11:02:01;3.45;;;2.22;;
40659;SDS011;26753;45.544;9.232;2022-08-01T11:04:32;5.10;;;2.30;;
40659;SDS011;26753;45.544;9.232;2022-08-01T11:07:15;3.38;;;2.30;;
40659;SDS011;26753;45.544;9.232;2022-08-01T11:09:47;5.10;;;2.28;;
40659;SDS011;26753;45.544;9.232;2022-08-01T11:12:39;6.85;;;2.35;;
40659;SDS011;26753;45.544;9.232;2022-08-01T11:20:06;9.77;;;3.10;;
40659;SDS011;26753;45.544;9.232;2022-08-01T11:23:18;6.85;;;2.75;;
40659;SDS011;26753;45.544;9.232;2022-08-01T11:25:22;4.28;;;2.65;;
40659;SDS011;26753;45.544;9.232;2022-08-01T11:27:48;6.15;;;2.80;;
40659;SDS011;26753;45.544;9.232;2022-08-01T11:30:34;9.20;;;2.67;;
40659;SDS011;26753;45.544;9.232;2022-08-01T11:32:59;7.68;;;2.30;;
40659;SDS011;26753;45.544;9.232;2022-08-01T11:35:25;4.32;;;2.38;;
40659;SDS011;26753;45.544;9.232;2022-08-01T11:37:53;5.45;;;2.25;;
40659;SDS011;26753;45.544;9.232;2022-08-01T11:40:25;3.85;;;2.20;;
40659;SDS011;26753;45.544;9.232;2022-08-01T11:48:19;6.88;;;2.30;;
40659;SDS011;26753;45.544;9.232;2022-08-01T11:50:55;5.80;;;2.20;;
40659;SDS011;26753;45.544;9.232;2022-08-01T11:53:21;4.80;;;2.20;;
40659;SDS011;26753;45.544;9.232;2022-08-01T11:55:48;4.45;;;2.42;;
40659;SDS011;26753;45.544;9.232;2022-08-01T11:58:17;3.85;;;2.42;;
40659;SDS011;26753;45.544;9.232;2022-08-01T12:00:53;8.48;;;2.90;;
40659;SDS011;26753;45.544;9.232;2022-08-01T12:03:24;5.80;;;2.90;;
40659;SDS011;26753;45.544;9.232;2022-08-01T12:05:52;6.25;;;2.28;;
40659;SDS011;26753;45.544;9.232;2022-08-01T12:08:29;7.07;;;2.47;;
40659;SDS011;26753;45.544;9.232;2022-08-01T12:11:01;6.32;;;2.25;;
40659;SDS011;26753;45.544;9.232;2022-08-01T12:13:38;8.77;;;2.60;;
40659;SDS011;26753;45.544;9.232;2022-08-01T12:16:08;6.20;;;2.33;;
40659;SDS011;26753;45.544;9.232;2022-08-01T12:18:38;4.80;;;2.05;;
40659;SDS011;26753;45.544;9.232;2022-08-01T12:21:05;4.57;;;2.30;;
40659;SDS011;26753;45.544;9.232;2022-08-01T12:23:31;2.63;;;2.20;;
40659;SDS011;26753;45.544;9.232;2022-08-01T12:25:56;6.22;;;2.30;;
40659;SDS011;26753;45.544;9.232;2022-08-01T12:28:22;4.18;;;2.17;;
40659;SDS011;26753;45.544;9.232;2022-08-01T12:30:48;2.33;;;2.00;;
40659;SDS011;26753;45.544;9.232;2022-08-01T12:33:16;2.70;;;1.92;;
40659;SDS011;26753;45.544;9.232;2022-08-01T12:35:43;4.05;;;2.00;;
40659;SDS011;26753;45.544;9.232;2022-08-01T12:38:16;3.00;;;2.17;;
40659;SDS011;26753;45.544;9.232;2022-08-01T12:40:45;6.07;;;2.20;;
40659;SDS011;26753;45.544;9.232;2022-08-01T12:43:20;3.25;;;2.45;;
40659;SDS011;26753;45.544;9.232;2022-08-01T12:45:48;3.80;;;2.17;;
40659;SDS011;26753;45.544;9.232;2022-08-01T12:48:16;3.33;;;2.45;;
40659;SDS011;26753;45.544;9.232;2022-08-01T12:50:44;4.70;;;2.38;;
40659;SDS011;26753;45.544;9.232;2022-08-01T12:53:12;2.65;;;2.20;;
40659;SDS011;26753;45.544;9.232;2022-08-01T12:55:44;2.83;;;2.00;;
40659;SDS011;26753;45.544;9.232;2022-08-01T12:58:18;4.70;;;2.10;;
40659;SDS011;26753;45.544;9.232;2022-08-01T13:00:45;3.13;;;1.90;;
40659;SDS011;26753;45.544;9.232;2022-08-01T13:03:16;5.60;;;2.00;;
40659;SDS011;26753;45.544;9.232;2022-08-01T13:08:14;3.45;;;1.70;;
40659;SDS011;26753;45.544;9.232;2022-08-01T13:11:03;2.17;;;1.50;;
40659;SDS011;26753;45.544;9.232;2022-08-01T13:13:49;4.68;;;1.70;;
40659;SDS011;26753;45.544;9.232;2022-08-01T13:16:17;2.38;;;1.40;;
40659;SDS011;26753;45.544;9.232;2022-08-01T13:18:49;3.00;;;1.60;;
40659;SDS011;26753;45.544;9.232;2022-08-01T13:21:20;4.32;;;1.70;;
40659;SDS011;26753;45.544;9.232;2022-08-01T13:26:52;2.08;;;1.60;;
40659;SDS011;26753;45.544;9.232;2022-08-01T13:29:38;2.95;;;1.60;;
40659;SDS011;26753;45.544;9.232;2022-08-01T13:32:13;2.20;;;1.52;;
40659;SDS011;26753;45.544;9.232;2022-08-01T13:34:40;3.85;;;1.70;;
40659;SDS011;26753;45.544;9.232;2022-08-01T13:37:06;3.08;;;1.60;;
40659;SDS011;26753;45.544;9.232;2022-08-01T13:39:31;2.80;;;1.73;;
40659;SDS011;26753;45.544;9.232;2022-08-01T13:42:14;2.22;;;1.92;;
40659;SDS011;26753;45.544;9.232;2022-08-01T13:44:40;3.92;;;1.52;;
40659;SDS011;26753;45.544;9.232;2022-08-01T13:47:07;3.20;;;1.60;;
40659;SDS011;26753;45.544;9.232;2022-08-01T13:49:33;2.90;;;1.60;;
40659;SDS011;26753;45.544;9.232;2022-08-01T13:51:59;3.83;;;1.60;;
40659;SDS011;26753;45.544;9.232;2022-08-01T13:54:27;3.55;;;1.70;;
40659;SDS011;26753;45.544;9.232;2022-08-01T13:56:53;1.80;;;1.58;;
40659;SDS011;26753;45.544;9.232;2022-08-01T13:59:18;3.78;;;1.60;;
40659;SDS011;26753;45.544;9.232;2022-08-01T14:01:44;2.60;;;1.52;;
40659;SDS011;26753;45.544;9.232;2022-08-01T14:04:11;2.58;;;1.50;;
40659;SDS011;26753;45.544;9.232;2022-08-01T14:06:37;4.25;;;1.30;;
40659;SDS011;26753;45.544;9.232;2022-08-01T14:09:03;6.05;;;1.50;;
40659;SDS011;26753;45.544;9.232;2022-08-01T14:11:30;2.15;;;1.35;;
40659;SDS011;26753;45.544;9.232;2022-08-01T14:13:56;2.85;;;1.75;;
40659;SDS011;26753;45.544;9.232;2022-08-01T14:16:22;2.25;;;1.63;;
40659;SDS011;26753;45.544;9.232;2022-08-01T14:18:48;1.80;;;1.38;;
40659;SDS011;26753;45.544;9.232;2022-08-01T14:21:14;3.83;;;2.30;;
40659;SDS011;26753;45.544;9.232;2022-08-01T14:23:40;7.38;;;1.58;;
40659;SDS011;26753;45.544;9.232;2022-08-01T14:26:07;3.60;;;1.58;;
40659;SDS011;26753;45.544;9.232;2022-08-01T14:28:33;2.47;;;1.30;;
40659;SDS011;26753;45.544;9.232;2022-08-01T14:31:00;3.22;;;1.30;;
40659;SDS011;26753;45.544;9.232;2022-08-01T14:33:26;4.10;;;1.83;;
40659;SDS011;26753;45.544;9.232;2022-08-01T14:35:52;4.60;;;2.00;;
40659;SDS011;26753;45.544;9.232;2022-08-01T14:38:17;2.55;;;1.30;;
40659;SDS011;26753;45.544;9.232;2022-08-01T14:40:44;2.08;;;1.50;;
40659;SDS011;26753;45.544;9.232;2022-08-01T14:43:12;3.05;;;1.13;;
40659;SDS011;26753;45.544;9.232;2022-08-01T14:45:38;4.35;;;1.40;;
40659;SDS011;26753;45.544;9.232;2022-08-01T14:48:04;1.30;;;1.20;;
40659;SDS011;26753;45.544;9.232;2022-08-01T14:50:30;3.10;;;1.25;;
40659;SDS011;26753;45.544;9.232;2022-08-01T14:52:55;2.08;;;1.20;;
40659;SDS011;26753;45.544;9.232;2022-08-01T14:55:22;2.30;;;1.20;;
40659;SDS011;26753;45.544;9.232;2022-08-01T14:57:50;5.35;;;1.50;;
40659;SDS011;26753;45.544;9.232;2022-08-01T15:00:16;1.40;;;1.30;;
40659;SDS011;26753;45.544;9.232;2022-08-01T15:02:42;4.03;;;1.50;;
40659;SDS011;26753;45.544;9.232;2022-08-01T15:05:08;3.38;;;1.50;;
40659;SDS011;26753;45.544;9.232;2022-08-01T15:07:35;2.60;;;1.20;;
40659;SDS011;26753;45.544;9.232;2022-08-01T15:10:02;2.25;;;1.80;;
40659;SDS011;26753;45.544;9.232;2022-08-01T15:12:29;3.60;;;1.75;;
40659;SDS011;26753;45.544;9.232;2022-08-01T15:14:54;2.80;;;1.75;;
40659;SDS011;26753;45.544;9.232;2022-08-01T15:17:21;5.22;;;1.70;;
40659;SDS011;26753;45.544;9.232;2022-08-01T15:19:50;4.72;;;2.60;;
40659;SDS011;26753;45.544;9.232;2022-08-01T15:22:17;1.35;;;1.20;;
40659;SDS011;26753;45.544;9.232;2022-08-01T15:24:43;1.95;;;1.10;;
40659;SDS011;26753;45.544;9.232;2022-08-01T15:27:09;2.33;;;1.83;;